sensor_id;sensor_type;location;lat;lon;timestamp;temperature;humidity
7576;DHT22;3829;50.798;4.358;2023-04-10T00:00:35;11.40;99.90
7576;DHT22;3829;50.798;4.358;2023-04-10T00:03:02;11.40;99.90
7576;DHT22;3829;50.798;4.358;2023-04-10T00:05:28;11.40;99.90
7576;DHT22;3829;50.798;4.358;2023-04-10T00:07:53;11.40;99.90
7576;DHT22;3829;50.798;4.358;2023-04-10T00:10:19;11.40;99.90
7576;DHT22;3829;50.798;4.358;2023-04-10T00:12:45;11.40;99.90
7576;DHT22;3829;50.798;4.358;2023-04-10T00:15:11;11.40;99.90
7576;DHT22;3829;50.798;4.358;2023-04-10T00:17:37;11.30;99.90
7576;DHT22;3829;50.798;4.358;2023-04-10T00:20:03;11.30;99.90
7576;DHT22;3829;50.798;4.358;2023-04-10T00:22:29;11.30;99.90
7576;DHT22;3829;50.798;4.358;2023-04-10T00:24:55;11.20;99.90
7576;DHT22;3829;50.798;4.358;2023-04-10T00:27:20;11.20;99.90
7576;DHT22;3829;50.798;4.358;2023-04-10T00:29:46;11.10;99.90
7576;DHT22;3829;50.798;4.358;2023-04-10T00:32:12;11.10;99.90
7576;DHT22;3829;50.798;4.358;2023-04-10T00:34:37;11.10;99.90
7576;DHT22;3829;50.798;4.358;2023-04-10T00:37:03;11.00;99.90
7576;DHT22;3829;50.798;4.358;2023-04-10T00:39:29;10.90;99.90
7576;DHT22;3829;50.798;4.358;2023-04-10T00:41:54;10.90;99.90
7576;DHT22;3829;50.798;4.358;2023-04-10T00:44:20;10.90;99.90
7576;DHT22;3829;50.798;4.358;2023-04-10T00:46:46;10.90;99.90
7576;DHT22;3829;50.798;4.358;2023-04-10T00:49:11;10.90;99.90
7576;DHT22;3829;50.798;4.358;2023-04-10T00:51:37;10.90;99.90
7576;DHT22;3829;50.798;4.358;2023-04-10T00:54:03;10.80;99.90
7576;DHT22;3829;50.798;4.358;2023-04-10T00:56:32;10.80;99.90
7576;DHT22;3829;50.798;4.358;2023-04-10T00:58:58;10.80;99.90
7576;DHT22;3829;50.798;4.358;2023-04-10T01:01:24;10.80;99.90
7576;DHT22;3829;50.798;4.358;2023-04-10T01:03:49;10.70;99.90
7576;DHT22;3829;50.798;4.358;2023-04-10T01:09:19;10.70;99.90
7576;DHT22;3829;50.798;4.358;2023-04-10T01:11:53;10.60;99.90
7576;DHT22;3829;50.798;4.358;2023-04-10T01:20:01;10.60;99.90
7576;DHT22;3829;50.798;4.358;2023-04-10T01:25:33;10.60;99.90
7576;DHT22;3829;50.798;4.358;2023-04-10T01:30:46;10.60;99.90
7576;DHT22;3829;50.798;4.358;2023-04-10T01:33:14;10.50;99.90
7576;DHT22;3829;50.798;4.358;2023-04-10T01:35:42;10.60;99.90
7576;DHT22;3829;50.798;4.358;2023-04-10T01:38:09;10.50;99.90
7576;DHT22;3829;50.798;4.358;2023-04-10T01:40:37;10.50;99.90
7576;DHT22;3829;50.798;4.358;2023-04-10T01:43:05;10.50;99.90
7576;DHT22;3829;50.798;4.358;2023-04-10T01:45:32;10.50;99.90
7576;DHT22;3829;50.798;4.358;2023-04-10T01:47:58;10.50;99.90
7576;DHT22;3829;50.798;4.358;2023-04-10T01:50:25;10.40;99.90
7576;DHT22;3829;50.798;4.358;2023-04-10T01:52:53;10.40;99.90
7576;DHT22;3829;50.798;4.358;2023-04-10T01:55:22;10.40;99.90
7576;DHT22;3829;50.798;4.358;2023-04-10T01:57:48;10.40;99.90
7576;DHT22;3829;50.798;4.358;2023-04-10T02:00:15;10.40;99.90
7576;DHT22;3829;50.798;4.358;2023-04-10T02:02:42;10.30;99.90
7576;DHT22;3829;50.798;4.358;2023-04-10T02:05:08;10.40;99.90
7576;DHT22;3829;50.798;4.358;2023-04-10T02:10:30;10.20;99.90
7576;DHT22;3829;50.798;4.358;2023-04-10T02:13:01;10.20;99.90
7576;DHT22;3829;50.798;4.358;2023-04-10T02:15:30;10.20;99.90
7576;DHT22;3829;50.798;4.358;2023-04-10T02:17:58;10.20;99.90
7576;DHT22;3829;50.798;4.358;2023-04-10T02:20:24;10.20;99.90
7576;DHT22;3829;50.798;4.358;2023-04-10T02:22:51;10.20;99.90
7576;DHT22;3829;50.798;4.358;2023-04-10T02:25:18;10.10;99.90
7576;DHT22;3829;50.798;4.358;2023-04-10T02:27:43;10.10;99.90
7576;DHT22;3829;50.798;4.358;2023-04-10T02:30:10;10.10;99.90
7576;DHT22;3829;50.798;4.358;2023-04-10T02:32:35;10.10;99.90
7576;DHT22;3829;50.798;4.358;2023-04-10T02:35:01;10.00;99.90
7576;DHT22;3829;50.798;4.358;2023-04-10T02:37:27;10.00;99.90
7576;DHT22;3829;50.798;4.358;2023-04-10T02:39:54;10.00;99.90
7576;DHT22;3829;50.798;4.358;2023-04-10T02:42:20;10.00;99.90
7576;DHT22;3829;50.798;4.358;2023-04-10T02:44:46;10.00;99.90
7576;DHT22;3829;50.798;4.358;2023-04-10T02:47:12;9.90;99.90
7576;DHT22;3829;50.798;4.358;2023-04-10T02:49:38;9.80;99.90
7576;DHT22;3829;50.798;4.358;2023-04-10T02:52:04;9.80;99.90
7576;DHT22;3829;50.798;4.358;2023-04-10T02:54:30;9.80;99.90
7576;DHT22;3829;50.798;4.358;2023-04-10T02:56:56;9.80;99.90
7576;DHT22;3829;50.798;4.358;2023-04-10T02:59:22;9.80;99.90
7576;DHT22;3829;50.798;4.358;2023-04-10T03:01:48;9.70;99.90
7576;DHT22;3829;50.798;4.358;2023-04-10T03:04:14;9.70;99.90
7576;DHT22;3829;50.798;4.358;2023-04-10T03:06:41;9.70;99.90
7576;DHT22;3829;50.798;4.358;2023-04-10T03:09:06;9.70;99.90
7576;DHT22;3829;50.798;4.358;2023-04-10T03:11:32;9.70;99.90
7576;DHT22;3829;50.798;4.358;2023-04-10T03:13:58;9.70;99.90
7576;DHT22;3829;50.798;4.358;2023-04-10T03:16:24;9.70;99.90
7576;DHT22;3829;50.798;4.358;2023-04-10T03:18:49;9.70;99.90
7576;DHT22;3829;50.798;4.358;2023-04-10T03:21:15;9.70;99.90
7576;DHT22;3829;50.798;4.358;2023-04-10T03:23:41;9.70;99.90
7576;DHT22;3829;50.798;4.358;2023-04-10T03:26:07;9.80;99.90
7576;DHT22;3829;50.798;4.358;2023-04-10T03:28:32;9.80;99.90
7576;DHT22;3829;50.798;4.358;2023-04-10T03:31:01;9.80;99.90
7576;DHT22;3829;50.798;4.358;2023-04-10T03:33:27;9.80;99.90
7576;DHT22;3829;50.798;4.358;2023-04-10T03:35:53;9.80;99.90
7576;DHT22;3829;50.798;4.358;2023-04-10T03:38:18;9.80;99.90
7576;DHT22;3829;50.798;4.358;2023-04-10T03:40:44;9.70;99.90
7576;DHT22;3829;50.798;4.358;2023-04-10T03:43:10;9.70;99.90
7576;DHT22;3829;50.798;4.358;2023-04-10T03:45:35;9.70;99.90
7576;DHT22;3829;50.798;4.358;2023-04-10T03:48:01;9.70;99.90
7576;DHT22;3829;50.798;4.358;2023-04-10T03:50:27;9.60;99.90
7576;DHT22;3829;50.798;4.358;2023-04-10T03:52:52;9.60;99.90
7576;DHT22;3829;50.798;4.358;2023-04-10T03:55:18;9.60;99.90
7576;DHT22;3829;50.798;4.358;2023-04-10T03:57:47;9.60;99.90
7576;DHT22;3829;50.798;4.358;2023-04-10T04:00:14;9.60;99.90
7576;DHT22;3829;50.798;4.358;2023-04-10T04:02:40;9.60;99.90
7576;DHT22;3829;50.798;4.358;2023-04-10T04:05:06;9.60;99.90
7576;DHT22;3829;50.798;4.358;2023-04-10T04:07:32;9.60;99.90
7576;DHT22;3829;50.798;4.358;2023-04-10T04:09:58;9.60;99.90
7576;DHT22;3829;50.798;4.358;2023-04-10T04:12:25;9.60;99.90
7576;DHT22;3829;50.798;4.358;2023-04-10T04:14:50;9.60;99.90
7576;DHT22;3829;50.798;4.358;2023-04-10T04:17:16;9.70;99.90
7576;DHT22;3829;50.798;4.358;2023-04-10T04:19:41;9.70;99.90
7576;DHT22;3829;50.798;4.358;2023-04-10T04:22:07;9.70;99.90
7576;DHT22;3829;50.798;4.358;2023-04-10T04:24:33;9.60;99.90
7576;DHT22;3829;50.798;4.358;2023-04-10T04:26:58;9.70;99.90
7576;DHT22;3829;50.798;4.358;2023-04-10T04:29:24;9.80;99.90
7576;DHT22;3829;50.798;4.358;2023-04-10T04:31:50;9.80;99.90
7576;DHT22;3829;50.798;4.358;2023-04-10T04:34:15;9.80;99.90
7576;DHT22;3829;50.798;4.358;2023-04-10T04:36:41;9.80;99.90
7576;DHT22;3829;50.798;4.358;2023-04-10T04:39:07;9.90;99.90
7576;DHT22;3829;50.798;4.358;2023-04-10T04:41:32;9.90;99.90
7576;DHT22;3829;50.798;4.358;2023-04-10T04:44:00;9.90;99.90
7576;DHT22;3829;50.798;4.358;2023-04-10T04:46:26;9.90;99.90
7576;DHT22;3829;50.798;4.358;2023-04-10T04:48:51;9.90;99.90
7576;DHT22;3829;50.798;4.358;2023-04-10T04:51:17;9.80;99.90
7576;DHT22;3829;50.798;4.358;2023-04-10T04:53:42;9.90;99.90
7576;DHT22;3829;50.798;4.358;2023-04-10T04:56:08;9.90;99.90
7576;DHT22;3829;50.798;4.358;2023-04-10T04:58:34;9.90;99.90
7576;DHT22;3829;50.798;4.358;2023-04-10T05:01:00;9.80;99.90
7576;DHT22;3829;50.798;4.358;2023-04-10T05:03:25;9.80;99.90
7576;DHT22;3829;50.798;4.358;2023-04-10T05:05:53;9.80;99.90
7576;DHT22;3829;50.798;4.358;2023-04-10T05:08:19;9.90;99.90
7576;DHT22;3829;50.798;4.358;2023-04-10T05:10:44;9.80;99.90
7576;DHT22;3829;50.798;4.358;2023-04-10T05:13:10;9.90;99.90
7576;DHT22;3829;50.798;4.358;2023-04-10T05:15:36;9.80;99.90
7576;DHT22;3829;50.798;4.358;2023-04-10T05:18:02;9.80;99.90
7576;DHT22;3829;50.798;4.358;2023-04-10T05:20:27;9.90;99.90
7576;DHT22;3829;50.798;4.358;2023-04-10T05:22:53;9.90;99.90
7576;DHT22;3829;50.798;4.358;2023-04-10T05:25:18;9.90;99.90
7576;DHT22;3829;50.798;4.358;2023-04-10T05:27:44;9.90;99.90
7576;DHT22;3829;50.798;4.358;2023-04-10T05:30:10;9.90;99.90
7576;DHT22;3829;50.798;4.358;2023-04-10T05:32:36;9.90;99.90
7576;DHT22;3829;50.798;4.358;2023-04-10T05:35:02;10.00;99.90
7576;DHT22;3829;50.798;4.358;2023-04-10T05:37:27;10.00;99.90
7576;DHT22;3829;50.798;4.358;2023-04-10T05:39:53;9.90;99.90
7576;DHT22;3829;50.798;4.358;2023-04-10T05:42:18;10.00;99.90
7576;DHT22;3829;50.798;4.358;2023-04-10T05:44:44;10.00;99.90
7576;DHT22;3829;50.798;4.358;2023-04-10T05:47:10;10.00;99.90
7576;DHT22;3829;50.798;4.358;2023-04-10T05:49:36;10.00;99.90
7576;DHT22;3829;50.798;4.358;2023-04-10T05:52:01;10.00;99.90
7576;DHT22;3829;50.798;4.358;2023-04-10T05:54:27;10.00;99.90
7576;DHT22;3829;50.798;4.358;2023-04-10T05:56:52;10.00;99.90
7576;DHT22;3829;50.798;4.358;2023-04-10T05:59:18;10.00;99.90
7576;DHT22;3829;50.798;4.358;2023-04-10T06:01:44;10.00;99.90
7576;DHT22;3829;50.798;4.358;2023-04-10T06:04:11;10.10;99.90
7576;DHT22;3829;50.798;4.358;2023-04-10T06:06:37;10.10;99.90
7576;DHT22;3829;50.798;4.358;2023-04-10T06:09:03;10.00;99.90
7576;DHT22;3829;50.798;4.358;2023-04-10T06:11:29;10.10;99.90
7576;DHT22;3829;50.798;4.358;2023-04-10T06:13:55;10.20;99.90
7576;DHT22;3829;50.798;4.358;2023-04-10T06:16:20;10.10;99.90
7576;DHT22;3829;50.798;4.358;2023-04-10T06:18:46;10.10;99.90
7576;DHT22;3829;50.798;4.358;2023-04-10T06:21:12;10.10;99.90
7576;DHT22;3829;50.798;4.358;2023-04-10T06:23:39;10.20;99.90
7576;DHT22;3829;50.798;4.358;2023-04-10T06:26:05;10.20;99.90
7576;DHT22;3829;50.798;4.358;2023-04-10T06:28:31;10.20;99.90
7576;DHT22;3829;50.798;4.358;2023-04-10T06:30:56;10.30;99.90
7576;DHT22;3829;50.798;4.358;2023-04-10T06:33:22;10.10;99.90
7576;DHT22;3829;50.798;4.358;2023-04-10T06:35:48;10.20;99.90
7576;DHT22;3829;50.798;4.358;2023-04-10T06:38:15;10.20;99.90
7576;DHT22;3829;50.798;4.358;2023-04-10T06:40:40;10.20;99.90
7576;DHT22;3829;50.798;4.358;2023-04-10T06:43:06;10.10;99.90
7576;DHT22;3829;50.798;4.358;2023-04-10T06:45:32;10.20;99.90
7576;DHT22;3829;50.798;4.358;2023-04-10T06:47:57;10.30;99.90
7576;DHT22;3829;50.798;4.358;2023-04-10T06:50:23;10.40;99.90
7576;DHT22;3829;50.798;4.358;2023-04-10T06:52:48;10.30;99.90
7576;DHT22;3829;50.798;4.358;2023-04-10T06:55:14;10.40;99.90
7576;DHT22;3829;50.798;4.358;2023-04-10T06:57:40;10.50;99.90
7576;DHT22;3829;50.798;4.358;2023-04-10T07:00:07;10.50;99.90
7576;DHT22;3829;50.798;4.358;2023-04-10T07:02:33;10.50;99.90
7576;DHT22;3829;50.798;4.358;2023-04-10T07:04:59;10.60;99.90
7576;DHT22;3829;50.798;4.358;2023-04-10T07:07:25;10.60;99.90
7576;DHT22;3829;50.798;4.358;2023-04-10T07:09:51;10.60;99.90
7576;DHT22;3829;50.798;4.358;2023-04-10T07:12:17;10.70;99.90
7576;DHT22;3829;50.798;4.358;2023-04-10T07:14:42;10.70;99.90
7576;DHT22;3829;50.798;4.358;2023-04-10T07:17:08;10.70;99.90
7576;DHT22;3829;50.798;4.358;2023-04-10T07:19:35;10.90;99.90
7576;DHT22;3829;50.798;4.358;2023-04-10T07:22:02;10.90;99.90
7576;DHT22;3829;50.798;4.358;2023-04-10T07:24:29;11.00;99.90
7576;DHT22;3829;50.798;4.358;2023-04-10T07:26:55;11.20;99.90
7576;DHT22;3829;50.798;4.358;2023-04-10T07:29:21;11.20;99.90
7576;DHT22;3829;50.798;4.358;2023-04-10T07:31:47;11.30;99.90
7576;DHT22;3829;50.798;4.358;2023-04-10T07:34:12;11.40;99.90
7576;DHT22;3829;50.798;4.358;2023-04-10T07:36:38;11.40;99.90
7576;DHT22;3829;50.798;4.358;2023-04-10T07:39:03;11.40;99.90
7576;DHT22;3829;50.798;4.358;2023-04-10T07:41:29;11.40;99.90
7576;DHT22;3829;50.798;4.358;2023-04-10T07:43:55;11.50;99.90
7576;DHT22;3829;50.798;4.358;2023-04-10T07:46:21;11.50;99.90
7576;DHT22;3829;50.798;4.358;2023-04-10T07:48:46;11.60;99.90
7576;DHT22;3829;50.798;4.358;2023-04-10T07:51:12;11.70;99.90
7576;DHT22;3829;50.798;4.358;2023-04-10T07:53:38;11.70;99.90
7576;DHT22;3829;50.798;4.358;2023-04-10T07:56:04;11.70;99.90
7576;DHT22;3829;50.798;4.358;2023-04-10T07:58:30;11.70;99.90
7576;DHT22;3829;50.798;4.358;2023-04-10T08:00:57;11.80;99.90
7576;DHT22;3829;50.798;4.358;2023-04-10T08:03:23;12.00;99.90
7576;DHT22;3829;50.798;4.358;2023-04-10T08:05:51;12.10;99.90
7576;DHT22;3829;50.798;4.358;2023-04-10T08:08:17;12.20;99.90
7576;DHT22;3829;50.798;4.358;2023-04-10T08:10:42;12.30;99.90
7576;DHT22;3829;50.798;4.358;2023-04-10T08:13:08;12.50;99.90
7576;DHT22;3829;50.798;4.358;2023-04-10T08:15:34;12.50;99.90
7576;DHT22;3829;50.798;4.358;2023-04-10T08:18:00;12.50;99.90
7576;DHT22;3829;50.798;4.358;2023-04-10T08:20:26;12.60;99.90
7576;DHT22;3829;50.798;4.358;2023-04-10T08:22:52;12.60;99.90
7576;DHT22;3829;50.798;4.358;2023-04-10T08:25:18;12.70;99.90
7576;DHT22;3829;50.798;4.358;2023-04-10T08:27:44;12.60;99.90
7576;DHT22;3829;50.798;4.358;2023-04-10T08:30:10;12.50;99.90
7576;DHT22;3829;50.798;4.358;2023-04-10T08:32:35;12.70;99.90
7576;DHT22;3829;50.798;4.358;2023-04-10T08:35:02;12.80;99.90
7576;DHT22;3829;50.798;4.358;2023-04-10T08:37:28;13.00;99.90
7576;DHT22;3829;50.798;4.358;2023-04-10T08:39:53;13.10;99.90
7576;DHT22;3829;50.798;4.358;2023-04-10T08:42:19;13.10;99.90
7576;DHT22;3829;50.798;4.358;2023-04-10T08:44:47;13.20;99.90
7576;DHT22;3829;50.798;4.358;2023-04-10T08:47:13;13.50;99.90
7576;DHT22;3829;50.798;4.358;2023-04-10T08:52:14;13.20;99.90
7576;DHT22;3829;50.798;4.358;2023-04-10T08:54:47;13.00;99.90
7576;DHT22;3829;50.798;4.358;2023-04-10T08:57:14;13.10;99.90
7576;DHT22;3829;50.798;4.358;2023-04-10T08:59:46;13.20;99.90
7576;DHT22;3829;50.798;4.358;2023-04-10T09:02:12;13.20;99.90
7576;DHT22;3829;50.798;4.358;2023-04-10T09:04:38;13.30;99.90
7576;DHT22;3829;50.798;4.358;2023-04-10T09:07:04;13.50;99.90
7576;DHT22;3829;50.798;4.358;2023-04-10T09:09:30;13.60;99.90
7576;DHT22;3829;50.798;4.358;2023-04-10T09:12:01;13.90;99.90
7576;DHT22;3829;50.798;4.358;2023-04-10T09:14:32;13.90;99.90
7576;DHT22;3829;50.798;4.358;2023-04-10T09:17:20;14.10;99.90
7576;DHT22;3829;50.798;4.358;2023-04-10T09:19:55;14.20;99.90
7576;DHT22;3829;50.798;4.358;2023-04-10T09:22:29;14.50;99.90
7576;DHT22;3829;50.798;4.358;2023-04-10T09:24:56;14.80;99.90
7576;DHT22;3829;50.798;4.358;2023-04-10T09:27:34;14.70;99.90
7576;DHT22;3829;50.798;4.358;2023-04-10T09:30:00;14.80;99.90
7576;DHT22;3829;50.798;4.358;2023-04-10T09:32:43;15.20;99.90
7576;DHT22;3829;50.798;4.358;2023-04-10T09:35:10;15.00;99.90
7576;DHT22;3829;50.798;4.358;2023-04-10T09:37:37;15.00;99.90
7576;DHT22;3829;50.798;4.358;2023-04-10T09:40:03;15.10;99.90
7576;DHT22;3829;50.798;4.358;2023-04-10T09:42:36;15.10;99.90
7576;DHT22;3829;50.798;4.358;2023-04-10T09:45:02;15.40;99.90
7576;DHT22;3829;50.798;4.358;2023-04-10T09:47:29;15.40;99.90
7576;DHT22;3829;50.798;4.358;2023-04-10T09:49:58;15.70;99.90
7576;DHT22;3829;50.798;4.358;2023-04-10T09:52:32;15.70;99.90
7576;DHT22;3829;50.798;4.358;2023-04-10T09:55:03;15.70;99.90
7576;DHT22;3829;50.798;4.358;2023-04-10T09:57:31;16.00;99.90
7576;DHT22;3829;50.798;4.358;2023-04-10T09:59:59;16.30;99.90
7576;DHT22;3829;50.798;4.358;2023-04-10T10:02:28;16.40;99.90
7576;DHT22;3829;50.798;4.358;2023-04-10T10:04:54;16.50;99.90
7576;DHT22;3829;50.798;4.358;2023-04-10T10:07:22;16.40;99.90
7576;DHT22;3829;50.798;4.358;2023-04-10T10:09:49;16.60;99.90
7576;DHT22;3829;50.798;4.358;2023-04-10T10:12:28;16.90;99.90
7576;DHT22;3829;50.798;4.358;2023-04-10T10:17:44;17.20;99.90
7576;DHT22;3829;50.798;4.358;2023-04-10T10:20:12;17.00;99.90
7576;DHT22;3829;50.798;4.358;2023-04-10T10:22:38;17.20;99.90
7576;DHT22;3829;50.798;4.358;2023-04-10T10:25:06;17.50;99.90
7576;DHT22;3829;50.798;4.358;2023-04-10T10:27:35;17.80;99.90
7576;DHT22;3829;50.798;4.358;2023-04-10T10:30:02;17.70;99.90
7576;DHT22;3829;50.798;4.358;2023-04-10T10:32:29;18.00;99.90
7576;DHT22;3829;50.798;4.358;2023-04-10T10:34:56;18.10;99.90
7576;DHT22;3829;50.798;4.358;2023-04-10T10:37:22;18.10;99.90
7576;DHT22;3829;50.798;4.358;2023-04-10T10:40:13;18.50;99.90
7576;DHT22;3829;50.798;4.358;2023-04-10T10:42:56;18.50;99.90
7576;DHT22;3829;50.798;4.358;2023-04-10T10:45:41;18.30;99.90
7576;DHT22;3829;50.798;4.358;2023-04-10T10:48:11;18.20;99.90
7576;DHT22;3829;50.798;4.358;2023-04-10T10:53:33;18.10;99.90
7576;DHT22;3829;50.798;4.358;2023-04-10T10:55:59;18.40;99.90
7576;DHT22;3829;50.798;4.358;2023-04-10T10:58:52;18.20;99.90
7576;DHT22;3829;50.798;4.358;2023-04-10T11:01:24;18.10;99.90
7576;DHT22;3829;50.798;4.358;2023-04-10T11:03:50;18.40;99.90
7576;DHT22;3829;50.798;4.358;2023-04-10T11:06:21;18.20;99.90
7576;DHT22;3829;50.798;4.358;2023-04-10T11:08:48;18.10;99.90
7576;DHT22;3829;50.798;4.358;2023-04-10T11:11:26;18.00;99.90
7576;DHT22;3829;50.798;4.358;2023-04-10T11:16:18;18.20;99.90
7576;DHT22;3829;50.798;4.358;2023-04-10T11:21:14;18.10;99.90
7576;DHT22;3829;50.798;4.358;2023-04-10T11:31:59;18.70;99.90
7576;DHT22;3829;50.798;4.358;2023-04-10T11:34:25;18.90;99.90
7576;DHT22;3829;50.798;4.358;2023-04-10T11:36:55;18.90;99.90
7576;DHT22;3829;50.798;4.358;2023-04-10T11:39:21;18.80;99.90
7576;DHT22;3829;50.798;4.358;2023-04-10T11:41:48;18.70;99.90
7576;DHT22;3829;50.798;4.358;2023-04-10T11:44:30;18.50;99.90
7576;DHT22;3829;50.798;4.358;2023-04-10T11:46:57;18.40;99.90
7576;DHT22;3829;50.798;4.358;2023-04-10T11:49:25;18.30;99.90
7576;DHT22;3829;50.798;4.358;2023-04-10T11:51:51;18.40;99.90
7576;DHT22;3829;50.798;4.358;2023-04-10T11:54:21;18.60;99.90
7576;DHT22;3829;50.798;4.358;2023-04-10T11:57:02;18.60;99.90
7576;DHT22;3829;50.798;4.358;2023-04-10T11:59:29;18.50;99.90
7576;DHT22;3829;50.798;4.358;2023-04-10T12:02:07;18.30;99.90
7576;DHT22;3829;50.798;4.358;2023-04-10T12:04:34;18.40;99.90
7576;DHT22;3829;50.798;4.358;2023-04-10T12:07:00;18.30;99.90
7576;DHT22;3829;50.798;4.358;2023-04-10T12:09:26;18.00;99.90
7576;DHT22;3829;50.798;4.358;2023-04-10T12:11:56;18.10;99.90
7576;DHT22;3829;50.798;4.358;2023-04-10T12:14:29;18.10;99.90
7576;DHT22;3829;50.798;4.358;2023-04-10T12:16:55;18.00;99.90
7576;DHT22;3829;50.798;4.358;2023-04-10T12:19:21;18.20;99.90
7576;DHT22;3829;50.798;4.358;2023-04-10T12:21:48;18.30;99.90
7576;DHT22;3829;50.798;4.358;2023-04-10T12:27:24;18.40;99.90
7576;DHT22;3829;50.798;4.358;2023-04-10T12:29:52;18.20;99.90
7576;DHT22;3829;50.798;4.358;2023-04-10T12:32:18;18.20;99.90
7576;DHT22;3829;50.798;4.358;2023-04-10T12:37:16;18.10;99.90
7576;DHT22;3829;50.798;4.358;2023-04-10T12:39:42;17.90;99.90
7576;DHT22;3829;50.798;4.358;2023-04-10T12:42:15;18.00;99.90
7576;DHT22;3829;50.798;4.358;2023-04-10T12:44:58;17.90;99.90
7576;DHT22;3829;50.798;4.358;2023-04-10T12:47:26;17.80;99.90
7576;DHT22;3829;50.798;4.358;2023-04-10T12:50:14;17.60;99.90
7576;DHT22;3829;50.798;4.358;2023-04-10T12:52:43;17.30;99.90
7576;DHT22;3829;50.798;4.358;2023-04-10T12:55:19;17.10;99.90
7576;DHT22;3829;50.798;4.358;2023-04-10T12:57:48;16.60;99.90
7576;DHT22;3829;50.798;4.358;2023-04-10T13:00:17;16.30;99.90
7576;DHT22;3829;50.798;4.358;2023-04-10T13:02:43;16.10;99.90
7576;DHT22;3829;50.798;4.358;2023-04-10T13:05:10;16.00;99.90
7576;DHT22;3829;50.798;4.358;2023-04-10T13:07:36;16.00;99.90
7576;DHT22;3829;50.798;4.358;2023-04-10T13:10:02;15.90;99.90
7576;DHT22;3829;50.798;4.358;2023-04-10T13:12:28;15.80;99.90
7576;DHT22;3829;50.798;4.358;2023-04-10T13:14:55;15.90;99.90
7576;DHT22;3829;50.798;4.358;2023-04-10T13:17:21;16.00;99.90
7576;DHT22;3829;50.798;4.358;2023-04-10T13:19:47;16.10;99.90
7576;DHT22;3829;50.798;4.358;2023-04-10T13:22:13;16.10;99.90
7576;DHT22;3829;50.798;4.358;2023-04-10T13:24:39;16.10;99.90
7576;DHT22;3829;50.798;4.358;2023-04-10T13:27:05;16.10;99.90
7576;DHT22;3829;50.798;4.358;2023-04-10T13:29:30;16.10;99.90
7576;DHT22;3829;50.798;4.358;2023-04-10T13:31:56;16.20;99.90
7576;DHT22;3829;50.798;4.358;2023-04-10T13:34:21;16.40;99.90
7576;DHT22;3829;50.798;4.358;2023-04-10T13:36:47;16.60;99.90
7576;DHT22;3829;50.798;4.358;2023-04-10T13:39:13;16.60;99.90
7576;DHT22;3829;50.798;4.358;2023-04-10T13:41:38;16.70;99.90
7576;DHT22;3829;50.798;4.358;2023-04-10T13:44:04;17.10;99.90
7576;DHT22;3829;50.798;4.358;2023-04-10T13:46:30;17.30;99.90
7576;DHT22;3829;50.798;4.358;2023-04-10T13:48:56;17.40;99.90
7576;DHT22;3829;50.798;4.358;2023-04-10T13:51:21;17.60;99.90
7576;DHT22;3829;50.798;4.358;2023-04-10T13:53:47;17.60;99.90
7576;DHT22;3829;50.798;4.358;2023-04-10T13:56:12;17.60;99.90
7576;DHT22;3829;50.798;4.358;2023-04-10T13:58:38;17.60;99.90
7576;DHT22;3829;50.798;4.358;2023-04-10T14:01:04;17.70;99.90
7576;DHT22;3829;50.798;4.358;2023-04-10T14:03:29;17.70;99.90
7576;DHT22;3829;50.798;4.358;2023-04-10T14:05:55;18.10;99.90
7576;DHT22;3829;50.798;4.358;2023-04-10T14:08:21;18.00;99.90
7576;DHT22;3829;50.798;4.358;2023-04-10T14:10:46;17.90;99.90
7576;DHT22;3829;50.798;4.358;2023-04-10T14:13:19;18.10;99.90
7576;DHT22;3829;50.798;4.358;2023-04-10T14:15:45;18.10;99.90
7576;DHT22;3829;50.798;4.358;2023-04-10T14:18:11;17.90;99.90
7576;DHT22;3829;50.798;4.358;2023-04-10T14:20:37;17.80;99.90
7576;DHT22;3829;50.798;4.358;2023-04-10T14:23:03;17.80;99.90
7576;DHT22;3829;50.798;4.358;2023-04-10T14:25:29;17.70;99.90
7576;DHT22;3829;50.798;4.358;2023-04-10T14:27:55;17.80;99.90
7576;DHT22;3829;50.798;4.358;2023-04-10T14:30:20;17.60;99.90
7576;DHT22;3829;50.798;4.358;2023-04-10T14:32:46;17.50;99.90
7576;DHT22;3829;50.798;4.358;2023-04-10T14:35:11;17.40;99.90
7576;DHT22;3829;50.798;4.358;2023-04-10T14:37:38;17.50;99.90
7576;DHT22;3829;50.798;4.358;2023-04-10T14:40:04;17.30;99.90
7576;DHT22;3829;50.798;4.358;2023-04-10T14:42:30;16.80;99.90
7576;DHT22;3829;50.798;4.358;2023-04-10T14:44:55;16.20;99.90
7576;DHT22;3829;50.798;4.358;2023-04-10T14:47:23;15.80;99.90
7576;DHT22;3829;50.798;4.358;2023-04-10T14:49:49;15.30;99.90
7576;DHT22;3829;50.798;4.358;2023-04-10T14:52:15;14.90;99.90
7576;DHT22;3829;50.798;4.358;2023-04-10T14:54:40;14.50;99.90
7576;DHT22;3829;50.798;4.358;2023-04-10T14:57:06;14.20;99.90
7576;DHT22;3829;50.798;4.358;2023-04-10T14:59:31;13.90;99.90
7576;DHT22;3829;50.798;4.358;2023-04-10T15:01:57;13.80;99.90
7576;DHT22;3829;50.798;4.358;2023-04-10T15:04:23;13.70;99.90
7576;DHT22;3829;50.798;4.358;2023-04-10T15:06:48;13.60;99.90
7576;DHT22;3829;50.798;4.358;2023-04-10T15:09:14;13.70;99.90
7576;DHT22;3829;50.798;4.358;2023-04-10T15:11:39;13.80;99.90
7576;DHT22;3829;50.798;4.358;2023-04-10T15:14:05;13.90;99.90
7576;DHT22;3829;50.798;4.358;2023-04-10T15:16:31;13.80;99.90
7576;DHT22;3829;50.798;4.358;2023-04-10T15:18:57;13.70;99.90
7576;DHT22;3829;50.798;4.358;2023-04-10T15:21:22;13.70;99.90
7576;DHT22;3829;50.798;4.358;2023-04-10T15:23:48;13.70;99.90
7576;DHT22;3829;50.798;4.358;2023-04-10T15:26:14;13.70;99.90
7576;DHT22;3829;50.798;4.358;2023-04-10T15:28:41;13.60;99.90
7576;DHT22;3829;50.798;4.358;2023-04-10T15:31:08;13.40;99.90
7576;DHT22;3829;50.798;4.358;2023-04-10T15:33:34;13.30;99.90
7576;DHT22;3829;50.798;4.358;2023-04-10T15:36:02;13.20;99.90
7576;DHT22;3829;50.798;4.358;2023-04-10T15:38:28;13.10;99.90
7576;DHT22;3829;50.798;4.358;2023-04-10T15:40:54;13.00;99.90
7576;DHT22;3829;50.798;4.358;2023-04-10T15:43:20;12.70;99.90
7576;DHT22;3829;50.798;4.358;2023-04-10T15:45:46;12.60;99.90
7576;DHT22;3829;50.798;4.358;2023-04-10T15:48:11;12.50;99.90
7576;DHT22;3829;50.798;4.358;2023-04-10T15:50:37;12.40;99.90
7576;DHT22;3829;50.798;4.358;2023-04-10T15:53:04;12.40;99.90
7576;DHT22;3829;50.798;4.358;2023-04-10T15:55:30;12.40;99.90
7576;DHT22;3829;50.798;4.358;2023-04-10T15:57:56;12.50;99.90
7576;DHT22;3829;50.798;4.358;2023-04-10T16:00:21;12.50;99.90
7576;DHT22;3829;50.798;4.358;2023-04-10T16:02:47;12.50;99.90
7576;DHT22;3829;50.798;4.358;2023-04-10T16:05:13;12.40;99.90
7576;DHT22;3829;50.798;4.358;2023-04-10T16:07:38;12.30;99.90
7576;DHT22;3829;50.798;4.358;2023-04-10T16:10:06;12.30;99.90
7576;DHT22;3829;50.798;4.358;2023-04-10T16:12:35;12.30;99.90
7576;DHT22;3829;50.798;4.358;2023-04-10T16:15:01;12.20;99.90
7576;DHT22;3829;50.798;4.358;2023-04-10T16:17:28;12.20;99.90
7576;DHT22;3829;50.798;4.358;2023-04-10T16:19:54;12.20;99.90
7576;DHT22;3829;50.798;4.358;2023-04-10T16:22:19;12.20;99.90
7576;DHT22;3829;50.798;4.358;2023-04-10T16:24:45;12.10;99.90
7576;DHT22;3829;50.798;4.358;2023-04-10T16:27:11;12.10;99.90
7576;DHT22;3829;50.798;4.358;2023-04-10T16:29:36;12.00;99.90
7576;DHT22;3829;50.798;4.358;2023-04-10T16:32:02;12.00;99.90
7576;DHT22;3829;50.798;4.358;2023-04-10T16:34:28;12.00;99.90
7576;DHT22;3829;50.798;4.358;2023-04-10T16:36:53;11.90;99.90
7576;DHT22;3829;50.798;4.358;2023-04-10T16:39:19;11.90;99.90
7576;DHT22;3829;50.798;4.358;2023-04-10T16:41:44;11.90;99.90
7576;DHT22;3829;50.798;4.358;2023-04-10T16:44:10;11.90;99.90
7576;DHT22;3829;50.798;4.358;2023-04-10T16:46:35;12.00;99.90